首页
METAR-TAF:

METAR-TAF

机场 :

Heringsdorf, 德国

纬度: 53-53N, 经度: 014-09E, 海拔: 28米

当前天气观测

该预报发布于10小时和52分钟前的15:20 UTC
风速14节,风向东北
温度 8°C
湿度 87%
气压 1013 hPa
能见度10公里或以上
多云层高于4800英尺

METAR: EDAH 171520Z 05014KT 9999 BKN048 08/06 Q1013

时间: 03:12 (02:12 UTC)

预报

该预报发布于12小时和12分钟前的14:00 UTC
预报有效从17日的 15点(UTC)到 17日的 24点(UTC)
风速9节,风向东转东北
能见度10公里或以上
多云层高于4000英尺
成为
从 17日的 17点(UTC)到 17日的 20点(UTC)
能見度: 4500
多云层高于500英尺
轻雾

TAF: EDAH 171400Z 1715/1724 06009KT 9999 BKN040 BECMG 1717/1720 4500 BR BKN005

超过4000个机场的气象观测和天气预报(METAR&TAF报告)。

可查询的气象台以黄色和红色小点在地图上表示。

将鼠标移到小点上方,可查看气象台名称。

然后点击查看天气观测和预报。

如需切换地图:点击带黑十字的绿色按钮放大地图;点击带横线的绿色按钮缩小地图;或者点击绿色箭头查看邻近地区的地图。


METAR-TAF: